createdAt,value
2019-04-13T00:00:02.101Z,9.30
2019-04-13T00:02:38.220Z,9.73
2019-04-13T00:05:14.436Z,9.87
2019-04-13T00:07:42.142Z,9.00
2019-04-13T00:10:09.823Z,10.87
2019-04-13T00:12:37.713Z,10.27
2019-04-13T00:15:05.837Z,9.53
2019-04-13T00:17:33.479Z,10.40
2019-04-13T00:20:01.143Z,10.00
2019-04-13T00:22:28.787Z,9.67
2019-04-13T00:24:56.431Z,9.43
2019-04-13T00:27:24.085Z,10.73
2019-04-13T00:29:51.743Z,10.70
2019-04-13T00:32:19.388Z,10.20
2019-04-13T00:34:47.044Z,10.70
2019-04-13T00:37:14.691Z,10.57
2019-04-13T00:39:42.393Z,10.23
2019-04-13T00:42:10.159Z,9.93
2019-04-13T00:44:37.925Z,10.47
2019-04-13T00:47:05.640Z,9.90
2019-04-13T00:49:33.288Z,10.80
2019-04-13T00:52:00.987Z,10.77
2019-04-13T00:54:28.651Z,10.90
2019-04-13T00:56:56.303Z,10.30
2019-04-13T00:59:23.959Z,9.50
2019-04-13T01:01:51.599Z,9.73
2019-04-13T01:04:19.248Z,10.47
2019-04-13T01:06:46.907Z,10.87
2019-04-13T01:09:14.571Z,10.27
2019-04-13T01:11:42.246Z,11.67
2019-04-13T01:14:09.999Z,10.77
2019-04-13T01:16:37.653Z,11.37
2019-04-13T01:19:05.303Z,11.40
2019-04-13T01:21:33.552Z,11.83
2019-04-13T01:24:01.239Z,10.70
2019-04-13T01:26:28.888Z,10.60
2019-04-13T01:28:56.541Z,12.07
2019-04-13T01:31:24.196Z,11.27
2019-04-13T01:33:51.839Z,11.53
2019-04-13T01:36:19.506Z,12.23
2019-04-13T01:38:47.154Z,12.67
2019-04-13T01:41:14.811Z,12.93
2019-04-13T01:43:42.463Z,12.43
2019-04-13T01:46:10.119Z,12.57
2019-04-13T01:48:37.767Z,12.50
2019-04-13T01:51:05.421Z,12.70
2019-04-13T01:53:33.079Z,13.73
2019-04-13T01:56:00.810Z,11.37
2019-04-13T01:58:28.535Z,13.77
2019-04-13T02:01:05.227Z,12.23
2019-04-13T02:03:33.359Z,12.40
2019-04-13T02:06:03.480Z,12.57
2019-04-13T02:08:39.519Z,14.33
2019-04-13T02:11:11.255Z,12.57
2019-04-13T02:13:38.905Z,12.87
2019-04-13T02:16:06.559Z,12.40
2019-04-13T02:18:34.209Z,13.17
2019-04-13T02:21:01.896Z,12.27
2019-04-13T02:23:29.597Z,14.30
2019-04-13T02:25:57.267Z,11.97
2019-04-13T02:28:24.930Z,13.07
2019-04-13T02:30:52.588Z,12.87
2019-04-13T02:33:21.866Z,12.83
2019-04-13T02:35:49.615Z,12.47
2019-04-13T02:38:17.292Z,13.33
2019-04-13T02:40:45.024Z,12.63
2019-04-13T02:43:12.675Z,12.43
2019-04-13T02:45:40.327Z,14.10
2019-04-13T02:48:07.997Z,13.43
2019-04-13T02:50:35.649Z,13.23
2019-04-13T02:53:03.297Z,13.37
2019-04-13T02:55:31.014Z,14.07
2019-04-13T02:57:58.797Z,12.50
2019-04-13T03:00:26.453Z,12.97
2019-04-13T03:02:54.103Z,14.20
2019-04-13T03:05:21.779Z,13.53
2019-04-13T03:07:49.476Z,13.87
2019-04-13T03:10:17.133Z,12.87
2019-04-13T03:12:44.787Z,13.40
2019-04-13T03:15:12.439Z,14.07
2019-04-13T03:17:59.129Z,13.10
2019-04-13T03:20:28.887Z,12.50
2019-04-13T03:22:56.538Z,13.20
2019-04-13T03:25:24.183Z,13.40
2019-04-13T03:27:51.829Z,12.67
2019-04-13T03:30:22.814Z,14.40
2019-04-13T03:32:50.452Z,13.13
2019-04-13T03:35:18.115Z,14.27
2019-04-13T03:37:45.763Z,13.90
2019-04-13T03:40:13.646Z,13.87
2019-04-13T03:42:41.327Z,13.33
2019-04-13T03:45:08.975Z,13.37
2019-04-13T03:47:36.628Z,13.40
2019-04-13T03:50:04.286Z,13.77
2019-04-13T03:52:31.939Z,14.97
2019-04-13T03:54:59.595Z,13.33
2019-04-13T03:57:27.315Z,14.23
2019-04-13T03:59:54.958Z,14.17
2019-04-13T04:02:22.616Z,15.07
2019-04-13T04:04:50.265Z,13.37
2019-04-13T04:07:17.920Z,13.67
2019-04-13T04:09:45.570Z,13.63
2019-04-13T04:12:13.232Z,13.97
2019-04-13T04:14:40.918Z,14.23
2019-04-13T04:17:08.643Z,13.57
2019-04-13T04:19:36.287Z,14.83
2019-04-13T04:22:03.938Z,14.37
2019-04-13T04:24:31.588Z,13.57
2019-04-13T04:26:59.276Z,14.60
2019-04-13T04:29:26.936Z,13.67
2019-04-13T04:31:54.627Z,14.33
2019-04-13T04:34:22.283Z,15.90
2019-04-13T04:36:49.944Z,13.67
2019-04-13T04:39:17.583Z,14.00
2019-04-13T04:41:45.334Z,14.43
2019-04-13T04:44:13.061Z,13.90
2019-04-13T04:46:40.747Z,14.90
2019-04-13T04:49:08.484Z,13.73
2019-04-13T04:51:36.139Z,14.20
2019-04-13T04:54:03.805Z,13.43
2019-04-13T04:56:31.467Z,13.60
2019-04-13T04:58:59.126Z,13.90
2019-04-13T05:01:26.798Z,13.73
2019-04-13T05:03:54.439Z,13.47
2019-04-13T05:06:22.107Z,13.33
2019-04-13T05:08:49.830Z,14.17
2019-04-13T05:11:17.607Z,13.67
2019-04-13T05:13:45.269Z,13.40
2019-04-13T05:16:12.931Z,13.07
2019-04-13T05:18:40.596Z,13.77
2019-04-13T05:21:08.410Z,13.10
2019-04-13T05:23:36.067Z,14.20
2019-04-13T05:26:03.716Z,13.90
2019-04-13T05:28:31.378Z,13.63
2019-04-13T05:30:59.038Z,13.90
2019-04-13T05:33:26.691Z,13.20
2019-04-13T05:35:54.354Z,13.97
2019-04-13T05:38:22.019Z,13.73
2019-04-13T05:40:49.685Z,14.10
2019-04-13T05:43:17.350Z,14.27
2019-04-13T05:45:45.099Z,13.23
2019-04-13T05:48:12.764Z,14.10
2019-04-13T05:50:40.414Z,12.77
2019-04-13T05:53:08.068Z,15.10
2019-04-13T05:55:35.717Z,14.03
2019-04-13T05:58:03.383Z,13.67
2019-04-13T06:00:31.035Z,13.20
2019-04-13T06:02:58.688Z,13.23
2019-04-13T06:05:26.392Z,13.53
2019-04-13T06:07:54.097Z,12.83
2019-04-13T06:10:21.747Z,13.07
2019-04-13T06:12:53.397Z,14.07
2019-04-13T06:15:18.751Z,13.87
2019-04-13T06:17:46.407Z,13.17
2019-04-13T06:20:15.323Z,13.27
2019-04-13T06:22:46.889Z,13.60
2019-04-13T06:25:12.552Z,12.87
2019-04-13T06:27:42.187Z,12.77
2019-04-13T06:30:32.683Z,14.77
2019-04-13T06:33:06.594Z,12.53
2019-04-13T06:35:34.344Z,13.03
2019-04-13T06:38:01.996Z,14.13
2019-04-13T06:40:29.639Z,13.87
2019-04-13T06:42:57.300Z,12.83
2019-04-13T06:45:25.143Z,12.87
2019-04-13T06:47:52.803Z,14.20
2019-04-13T06:50:20.462Z,11.80
2019-04-13T06:52:48.115Z,12.37
2019-04-13T06:55:16.252Z,11.53
2019-04-13T06:57:44.611Z,14.13
2019-04-13T07:00:12.263Z,14.17
2019-04-13T07:02:39.919Z,14.13
2019-04-13T07:05:07.575Z,13.60
2019-04-13T07:07:45.881Z,13.87
2019-04-13T07:10:17.343Z,13.77
2019-04-13T07:12:56.011Z,14.83
2019-04-13T07:15:24.799Z,14.53
2019-04-13T07:17:52.455Z,12.83
2019-04-13T07:20:20.104Z,13.97
2019-04-13T07:22:47.759Z,14.17
2019-04-13T07:25:15.423Z,13.67
2019-04-13T07:27:43.223Z,13.60
2019-04-13T07:30:13.798Z,13.53
2019-04-13T07:32:40.270Z,14.40
2019-04-13T07:35:09.580Z,17.97
2019-04-13T07:37:37.452Z,18.43
2019-04-13T07:40:05.171Z,15.00
2019-04-13T07:42:32.900Z,15.70
2019-04-13T07:45:09.629Z,16.27
2019-04-13T07:47:56.431Z,15.13
2019-04-13T07:50:29.387Z,16.37
2019-04-13T07:52:58.088Z,14.53
2019-04-13T07:55:25.919Z,14.70
2019-04-13T07:57:53.621Z,14.33
2019-04-13T08:00:21.665Z,14.83
2019-04-13T08:02:49.461Z,15.23
2019-04-13T08:05:17.283Z,14.50
2019-04-13T08:07:50.093Z,14.70
2019-04-13T08:10:15.020Z,15.83
2019-04-13T08:12:42.876Z,14.10
2019-04-13T08:15:10.932Z,14.90
2019-04-13T08:17:38.868Z,15.67
2019-04-13T08:20:12.003Z,13.97
2019-04-13T08:22:39.847Z,14.17
2019-04-13T08:25:07.497Z,18.37
2019-04-13T08:27:35.312Z,14.13
2019-04-13T08:30:03.172Z,14.27
2019-04-13T08:32:34.965Z,13.57
2019-04-13T08:35:00.200Z,14.57
2019-04-13T08:37:27.849Z,12.93
2019-04-13T08:40:02.182Z,13.73
2019-04-13T08:42:27.125Z,13.57
2019-04-13T08:44:54.278Z,12.50
2019-04-13T08:47:21.925Z,12.33
2019-04-13T08:49:49.615Z,13.13
2019-04-13T08:52:17.405Z,17.73
2019-04-13T08:54:45.129Z,14.17
2019-04-13T08:57:12.780Z,21.50
2019-04-13T08:59:40.438Z,13.37
2019-04-13T09:02:08.099Z,12.07
2019-04-13T09:04:35.784Z,11.97
2019-04-13T09:07:03.441Z,16.20
2019-04-13T09:09:35.524Z,12.63
2019-04-13T09:12:05.119Z,14.70
2019-04-13T09:14:30.682Z,11.37
2019-04-13T09:17:00.014Z,12.03
2019-04-13T09:19:43.871Z,11.67
2019-04-13T09:22:16.809Z,16.17
2019-04-13T09:24:44.530Z,11.13
2019-04-13T09:27:12.193Z,11.13
2019-04-13T09:29:39.839Z,14.10
2019-04-13T09:32:07.490Z,12.80
2019-04-13T09:34:35.200Z,11.60
2019-04-13T09:37:02.917Z,10.20
2019-04-13T09:39:30.587Z,9.67
2019-04-13T09:41:58.227Z,10.53
2019-04-13T09:44:31.646Z,10.13
2019-04-13T09:47:00.900Z,10.97
2019-04-13T09:49:28.555Z,10.53
2019-04-13T09:52:00.028Z,10.57
2019-04-13T09:54:25.591Z,10.27
2019-04-13T09:56:53.253Z,11.03
2019-04-13T09:59:20.899Z,10.10
2019-04-13T10:01:48.556Z,12.63
2019-04-13T10:04:16.211Z,9.90
2019-04-13T10:06:43.850Z,9.53
2019-04-13T10:09:11.491Z,8.30
2019-04-13T10:11:45.803Z,9.50
2019-04-13T10:14:22.580Z,8.07
2019-04-13T10:16:56.714Z,10.27
2019-04-13T10:19:24.379Z,9.60
2019-04-13T10:21:52.039Z,9.33
2019-04-13T10:24:21.384Z,9.33
2019-04-13T10:26:49.107Z,9.43
2019-04-13T10:29:19.369Z,8.67
2019-04-13T10:31:46.203Z,9.00
2019-04-13T10:34:13.891Z,9.87
2019-04-13T10:36:41.539Z,9.63
2019-04-13T10:39:10.096Z,9.57
2019-04-13T10:41:37.747Z,10.23
2019-04-13T10:44:07.898Z,9.30
2019-04-13T10:46:54.167Z,9.50
2019-04-13T10:49:27.544Z,9.57
2019-04-13T10:51:59.915Z,10.33
2019-04-13T10:54:27.571Z,8.27
2019-04-13T10:56:55.208Z,8.70
2019-04-13T10:59:22.875Z,10.43
2019-04-13T11:01:50.527Z,9.97
2019-04-13T11:04:18.183Z,9.27
2019-04-13T11:06:45.835Z,9.87
2019-04-13T11:09:21.303Z,9.40
2019-04-13T11:11:42.839Z,8.67
2019-04-13T11:14:10.483Z,9.70
2019-04-13T11:16:38.224Z,10.20
2019-04-13T11:19:07.830Z,9.70
2019-04-13T11:21:35.257Z,10.63
2019-04-13T11:24:02.903Z,11.33
2019-04-13T11:26:30.586Z,11.00
2019-04-13T11:28:58.316Z,9.30
2019-04-13T11:31:26.051Z,12.10
2019-04-13T11:33:53.779Z,12.27
2019-04-13T11:36:21.443Z,11.30
2019-04-13T11:38:49.092Z,10.37
2019-04-13T11:41:36.748Z,11.50
2019-04-13T11:44:09.603Z,11.10
2019-04-13T11:46:44.176Z,11.10
2019-04-13T11:49:14.669Z,10.87
2019-04-13T11:51:42.320Z,11.30
2019-04-13T11:54:09.987Z,11.33
2019-04-13T11:56:38.111Z,10.97
2019-04-13T11:59:05.894Z,11.03
2019-04-13T12:01:38.826Z,11.60
2019-04-13T12:04:18.482Z,7.93
2019-04-13T12:06:56.192Z,11.83
2019-04-13T12:09:49.657Z,9.07
2019-04-13T12:12:16.194Z,11.27
2019-04-13T12:14:51.602Z,11.77
2019-04-13T12:17:23.939Z,12.07
2019-04-13T12:19:56.236Z,11.57
2019-04-13T12:22:27.289Z,11.17
2019-04-13T12:24:54.977Z,11.43
2019-04-13T12:27:22.714Z,11.90
2019-04-13T12:29:50.366Z,10.93
2019-04-13T12:32:23.648Z,11.17
2019-04-13T12:34:49.769Z,11.50
2019-04-13T12:37:17.532Z,12.63
2019-04-13T12:39:46.614Z,11.57
2019-04-13T12:42:14.334Z,12.93
2019-04-13T12:44:41.983Z,11.47
2019-04-13T12:47:13.625Z,12.37
2019-04-13T12:49:41.279Z,10.03
2019-04-13T12:52:09.069Z,10.20
2019-04-13T12:54:37.467Z,11.20
2019-04-13T12:57:05.678Z,9.40
2019-04-13T12:59:36.140Z,12.20
2019-04-13T13:02:07.929Z,11.17
2019-04-13T13:04:43.416Z,11.37
2019-04-13T13:07:11.116Z,11.23
2019-04-13T13:09:40.151Z,9.93
2019-04-13T13:12:08.209Z,10.07
2019-04-13T13:14:35.866Z,9.30
2019-04-13T13:17:03.522Z,9.60
2019-04-13T13:19:31.173Z,10.03
2019-04-13T13:21:58.883Z,11.50
2019-04-13T13:24:26.660Z,10.97
2019-04-13T13:26:54.323Z,10.20
2019-04-13T13:29:22.354Z,10.50
2019-04-13T13:31:50.219Z,10.20
2019-04-13T13:34:17.876Z,10.93
2019-04-13T13:36:45.521Z,11.17
2019-04-13T13:39:13.984Z,10.67
2019-04-13T13:41:41.815Z,11.17
2019-04-13T13:44:09.467Z,9.53
2019-04-13T13:46:37.324Z,10.30
2019-04-13T13:49:04.967Z,10.83
2019-04-13T13:51:32.631Z,10.53
2019-04-13T13:54:00.320Z,13.07
2019-04-13T13:56:30.409Z,11.03
2019-04-13T13:59:03.707Z,15.50
2019-04-13T14:01:35.687Z,11.83
2019-04-13T14:04:03.334Z,10.93
2019-04-13T14:06:31.011Z,11.70
2019-04-13T14:08:58.675Z,15.80
2019-04-13T14:11:26.322Z,11.13
2019-04-13T14:13:53.991Z,11.57
2019-04-13T14:16:21.656Z,11.93
2019-04-13T14:18:49.298Z,10.57
2019-04-13T14:21:16.946Z,10.50
2019-04-13T14:23:44.603Z,16.17
2019-04-13T14:26:12.257Z,10.03
2019-04-13T14:28:39.905Z,13.97
2019-04-13T14:31:07.715Z,10.50
2019-04-13T14:33:35.375Z,11.50
2019-04-13T14:36:03.119Z,10.53
2019-04-13T14:38:30.790Z,13.50
2019-04-13T14:40:58.430Z,10.63
2019-04-13T14:43:31.337Z,14.53
2019-04-13T14:45:59.656Z,12.23
2019-04-13T14:48:28.143Z,11.20
2019-04-13T14:50:55.787Z,10.37
2019-04-13T14:53:23.451Z,12.43
2019-04-13T14:55:51.120Z,12.70
2019-04-13T14:58:18.771Z,10.07
2019-04-13T15:00:46.497Z,8.07
2019-04-13T15:03:14.223Z,11.97
2019-04-13T15:05:41.888Z,13.03
2019-04-13T15:08:10.745Z,12.40
2019-04-13T15:10:38.991Z,10.53
2019-04-13T15:13:06.672Z,13.47
2019-04-13T15:15:39.337Z,14.00
2019-04-13T15:18:15.520Z,11.73
2019-04-13T15:20:45.963Z,10.27
2019-04-13T15:23:12.204Z,11.70
2019-04-13T15:25:40.240Z,9.77
2019-04-13T15:28:08.217Z,9.93
2019-04-13T15:30:36.034Z,11.37
2019-04-13T15:33:06.811Z,12.37
2019-04-13T15:35:33.044Z,11.43
2019-04-13T15:38:00.695Z,11.00
2019-04-13T15:40:31.399Z,11.87
2019-04-13T15:43:03.380Z,11.20
2019-04-13T15:45:27.583Z,10.80
2019-04-13T15:47:55.611Z,10.00
2019-04-13T15:50:24.020Z,10.53
2019-04-13T15:52:51.811Z,11.30
2019-04-13T15:55:19.458Z,17.80
2019-04-13T15:57:47.130Z,12.00
2019-04-13T16:00:16.823Z,10.27
2019-04-13T16:02:45.655Z,13.00
2019-04-13T16:05:13.791Z,15.17
2019-04-13T16:07:41.591Z,10.80
2019-04-13T16:10:28.988Z,16.10
2019-04-13T16:13:00.302Z,10.03
2019-04-13T16:15:31.463Z,10.27
2019-04-13T16:18:00.209Z,10.43
2019-04-13T16:20:29.401Z,7.67
2019-04-13T16:22:57.904Z,10.37
2019-04-13T16:25:27.051Z,10.60
2019-04-13T16:28:06.139Z,11.40
2019-04-13T16:30:55.510Z,11.97
2019-04-13T16:33:34.935Z,10.90
2019-04-13T16:36:10.604Z,9.37
2019-04-13T16:38:52.519Z,13.63
2019-04-13T16:41:08.630Z,15.80
2019-04-13T16:43:39.473Z,12.87
2019-04-13T16:46:13.997Z,10.00
2019-04-13T16:49:01.092Z,10.93
2019-04-13T16:51:25.108Z,9.63
2019-04-13T16:54:01.766Z,10.70
2019-04-13T16:56:33.697Z,10.17
2019-04-13T16:59:07.837Z,10.37
2019-04-13T17:01:43.935Z,9.97
2019-04-13T17:04:17.261Z,9.33
2019-04-13T17:06:46.058Z,9.70
2019-04-13T17:09:14.271Z,10.40
2019-04-13T17:11:42.006Z,10.83
2019-04-13T17:14:09.766Z,9.70
2019-04-13T17:16:38.368Z,11.40
2019-04-13T17:19:13.336Z,10.90
2019-04-13T17:21:47.995Z,10.07
2019-04-13T17:24:22.060Z,10.33
2019-04-13T17:27:05.103Z,10.17
2019-04-13T17:29:38.126Z,10.77
2019-04-13T17:32:17.131Z,7.93
2019-04-13T17:34:52.734Z,10.43
2019-04-13T17:37:21.264Z,10.07
2019-04-13T17:39:49.070Z,7.90
2019-04-13T17:42:35.323Z,11.20
2019-04-13T17:45:04.761Z,8.33
2019-04-13T17:47:42.964Z,9.40
2019-04-13T17:50:22.380Z,9.97
2019-04-13T17:53:00.015Z,10.03
2019-04-13T17:55:37.363Z,10.60
2019-04-13T17:58:21.038Z,10.77
2019-04-13T18:01:08.227Z,10.37
2019-04-13T18:03:49.328Z,10.50
2019-04-13T18:06:22.156Z,10.43
2019-04-13T18:09:01.899Z,10.03
2019-04-13T18:11:49.112Z,10.43
2019-04-13T18:14:28.215Z,10.97
2019-04-13T18:17:03.065Z,10.10
2019-04-13T18:19:30.877Z,11.10
2019-04-13T18:21:59.935Z,12.27
2019-04-13T18:24:28.463Z,13.67
2019-04-13T18:26:56.498Z,19.93
2019-04-13T18:29:24.246Z,10.67
2019-04-13T18:31:52.325Z,20.13
2019-04-13T18:34:20.404Z,12.07
2019-04-13T18:36:50.429Z,14.20
2019-04-13T18:39:19.036Z,13.10
2019-04-13T18:41:47.510Z,11.87
2019-04-13T18:44:16.370Z,12.20
2019-04-13T18:46:44.851Z,11.17
2019-04-13T18:49:13.801Z,12.10
2019-04-13T18:51:42.023Z,11.60
2019-04-13T18:54:09.739Z,10.60
2019-04-13T18:56:37.603Z,10.83
2019-04-13T18:59:06.474Z,11.37
2019-04-13T19:01:34.467Z,12.13
2019-04-13T19:04:02.231Z,11.47
2019-04-13T19:06:29.885Z,11.60
2019-04-13T19:08:57.543Z,12.57
2019-04-13T19:11:25.187Z,10.30
2019-04-13T19:13:52.844Z,12.40
2019-04-13T19:16:20.487Z,13.07
2019-04-13T19:18:48.141Z,14.77
2019-04-13T19:21:15.798Z,13.50
2019-04-13T19:23:43.447Z,13.10
2019-04-13T19:26:11.095Z,12.30
2019-04-13T19:28:38.786Z,13.23
2019-04-13T19:31:06.444Z,12.77
2019-04-13T19:33:34.152Z,12.70
2019-04-13T19:36:01.799Z,12.07
2019-04-13T19:38:29.443Z,12.03
2019-04-13T19:40:57.102Z,13.93
2019-04-13T19:43:24.777Z,13.70
2019-04-13T19:45:52.443Z,13.10
2019-04-13T19:48:20.168Z,12.87
2019-04-13T19:50:47.895Z,12.67
2019-04-13T19:53:36.663Z,11.93
2019-04-13T19:56:09.003Z,11.23
2019-04-13T19:58:36.693Z,12.63
2019-04-13T20:01:04.455Z,13.00
2019-04-13T20:03:32.145Z,12.40
2019-04-13T20:05:59.797Z,12.67
2019-04-13T20:08:27.451Z,12.87
2019-04-13T20:10:55.099Z,12.67
2019-04-13T20:13:33.874Z,14.13
2019-04-13T20:15:53.046Z,11.90
2019-04-13T20:18:21.194Z,13.43
2019-04-13T20:20:48.983Z,13.20
2019-04-13T20:23:16.651Z,13.03
2019-04-13T20:25:44.307Z,12.67
2019-04-13T20:28:12.028Z,12.40
2019-04-13T20:30:39.683Z,13.57
2019-04-13T20:33:07.331Z,13.77
2019-04-13T20:35:34.988Z,12.37
2019-04-13T20:38:02.634Z,12.43
2019-04-13T20:40:36.167Z,13.13
2019-04-13T20:43:03.862Z,13.00
2019-04-13T20:45:31.600Z,12.20
2019-04-13T20:48:00.730Z,12.80
2019-04-13T20:50:29.527Z,12.60
2019-04-13T20:52:57.240Z,12.40
2019-04-13T20:55:26.121Z,13.43
2019-04-13T20:57:54.498Z,12.23
2019-04-13T21:00:22.471Z,13.47
2019-04-13T21:02:50.486Z,13.20
2019-04-13T21:05:18.601Z,13.10
2019-04-13T21:07:46.638Z,12.97
2019-04-13T21:10:14.399Z,13.23
2019-04-13T21:12:42.050Z,13.20
2019-04-13T21:15:09.777Z,12.63
2019-04-13T21:17:37.536Z,13.17
2019-04-13T21:20:05.569Z,12.93
2019-04-13T21:22:33.542Z,12.90
2019-04-13T21:25:01.345Z,13.37
2019-04-13T21:27:29.262Z,12.97
2019-04-13T21:29:57.084Z,12.43
2019-04-13T21:32:24.761Z,12.70
2019-04-13T21:34:52.624Z,13.20
2019-04-13T21:37:20.562Z,12.93
2019-04-13T21:39:48.400Z,13.40
2019-04-13T21:42:16.135Z,13.83
2019-04-13T21:44:46.669Z,12.67
2019-04-13T21:47:14.157Z,11.40
2019-04-13T21:49:42.635Z,12.10
2019-04-13T21:52:16.943Z,11.77
2019-04-13T21:54:45.348Z,11.13
2019-04-13T21:57:13.362Z,11.60
2019-04-13T21:59:41.301Z,11.27
2019-04-13T22:02:18.487Z,12.17
2019-04-13T22:04:46.148Z,11.17
2019-04-13T22:07:13.795Z,12.27
2019-04-13T22:09:41.439Z,11.00
2019-04-13T22:12:09.147Z,11.73
2019-04-13T22:14:46.355Z,12.00
2019-04-13T22:17:07.383Z,12.53
2019-04-13T22:19:35.501Z,11.37
2019-04-13T22:22:03.464Z,12.63
2019-04-13T22:24:31.248Z,13.13
2019-04-13T22:26:58.895Z,12.77
2019-04-13T22:29:36.069Z,11.83
2019-04-13T22:32:23.175Z,11.63
2019-04-13T22:34:57.396Z,13.90
2019-04-13T22:37:25.579Z,13.17
2019-04-13T22:39:53.353Z,13.23
2019-04-13T22:42:21.004Z,12.50
2019-04-13T22:44:56.169Z,13.33
2019-04-13T22:47:20.972Z,11.77
2019-04-13T22:49:58.168Z,13.03
2019-04-13T22:52:38.854Z,12.33
2019-04-13T22:55:14.353Z,12.93
2019-04-13T22:57:43.483Z,12.63
2019-04-13T23:00:17.184Z,12.67
2019-04-13T23:02:49.605Z,14.43
2019-04-13T23:05:17.653Z,13.63
2019-04-13T23:07:45.739Z,14.03
2019-04-13T23:10:13.615Z,12.53
2019-04-13T23:12:42.124Z,14.33
2019-04-13T23:15:19.461Z,13.73
2019-04-13T23:17:39.864Z,13.03
2019-04-13T23:20:08.225Z,15.27
2019-04-13T23:22:36.331Z,15.03
2019-04-13T23:25:05.052Z,13.97
2019-04-13T23:27:33.050Z,13.60
2019-04-13T23:30:00.940Z,13.57
2019-04-13T23:32:29.174Z,14.50
2019-04-13T23:34:59.682Z,15.40
2019-04-13T23:37:26.241Z,14.53
2019-04-13T23:39:54.161Z,14.47
2019-04-13T23:42:22.220Z,15.23
2019-04-13T23:44:50.716Z,14.13
2019-04-13T23:47:19.332Z,13.97
2019-04-13T23:49:47.168Z,14.23
2019-04-13T23:52:15.304Z,14.73
2019-04-13T23:54:52.243Z,15.13
2019-04-13T23:57:29.935Z,14.83
